sensor_id;sensor_type;location;lat;lon;timestamp;temperature;humidity
6552;DHT22;3309;48.708;9.290;2022-10-31T00:01:58;9.20;99.90
6552;DHT22;3309;48.708;9.290;2022-10-31T00:04:23;9.10;99.90
6552;DHT22;3309;48.708;9.290;2022-10-31T00:06:49;9.20;99.90
6552;DHT22;3309;48.708;9.290;2022-10-31T00:09:14;9.10;99.90
6552;DHT22;3309;48.708;9.290;2022-10-31T00:11:40;9.10;99.90
6552;DHT22;3309;48.708;9.290;2022-10-31T00:14:05;9.10;99.90
6552;DHT22;3309;48.708;9.290;2022-10-31T00:16:31;9.00;99.90
6552;DHT22;3309;48.708;9.290;2022-10-31T00:18:59;9.00;99.90
6552;DHT22;3309;48.708;9.290;2022-10-31T00:21:25;8.90;99.90
6552;DHT22;3309;48.708;9.290;2022-10-31T00:23:51;9.00;99.90
6552;DHT22;3309;48.708;9.290;2022-10-31T00:26:17;8.90;99.90
6552;DHT22;3309;48.708;9.290;2022-10-31T00:28:43;8.90;99.90
6552;DHT22;3309;48.708;9.290;2022-10-31T00:31:10;8.80;99.90
6552;DHT22;3309;48.708;9.290;2022-10-31T00:33:37;8.80;99.90
6552;DHT22;3309;48.708;9.290;2022-10-31T00:36:05;8.80;99.90
6552;DHT22;3309;48.708;9.290;2022-10-31T00:38:31;8.70;99.90
6552;DHT22;3309;48.708;9.290;2022-10-31T00:40:56;8.70;99.90
6552;DHT22;3309;48.708;9.290;2022-10-31T00:43:22;8.70;99.90
6552;DHT22;3309;48.708;9.290;2022-10-31T00:45:48;8.70;99.90
6552;DHT22;3309;48.708;9.290;2022-10-31T00:48:13;8.70;99.90
6552;DHT22;3309;48.708;9.290;2022-10-31T00:50:39;8.60;99.90
6552;DHT22;3309;48.708;9.290;2022-10-31T00:53:05;8.60;99.90
6552;DHT22;3309;48.708;9.290;2022-10-31T00:55:31;8.60;99.90
6552;DHT22;3309;48.708;9.290;2022-10-31T00:57:56;8.60;99.90
6552;DHT22;3309;48.708;9.290;2022-10-31T01:00:22;8.50;99.90
6552;DHT22;3309;48.708;9.290;2022-10-31T01:02:48;8.40;99.90
6552;DHT22;3309;48.708;9.290;2022-10-31T01:05:13;8.40;99.90
6552;DHT22;3309;48.708;9.290;2022-10-31T01:07:40;8.40;99.90
6552;DHT22;3309;48.708;9.290;2022-10-31T01:10:07;8.40;99.90
6552;DHT22;3309;48.708;9.290;2022-10-31T01:12:40;8.40;99.90
6552;DHT22;3309;48.708;9.290;2022-10-31T01:15:07;8.40;99.90
6552;DHT22;3309;48.708;9.290;2022-10-31T01:17:33;8.40;99.90
6552;DHT22;3309;48.708;9.290;2022-10-31T01:19:58;8.40;99.90
6552;DHT22;3309;48.708;9.290;2022-10-31T01:22:24;8.40;99.90
6552;DHT22;3309;48.708;9.290;2022-10-31T01:24:49;8.40;99.90
6552;DHT22;3309;48.708;9.290;2022-10-31T01:27:15;8.30;99.90
6552;DHT22;3309;48.708;9.290;2022-10-31T01:29:40;8.30;99.90
6552;DHT22;3309;48.708;9.290;2022-10-31T01:32:06;8.30;99.90
6552;DHT22;3309;48.708;9.290;2022-10-31T01:34:31;8.30;99.90
6552;DHT22;3309;48.708;9.290;2022-10-31T01:36:57;8.30;99.90
6552;DHT22;3309;48.708;9.290;2022-10-31T01:39:23;8.30;99.90
6552;DHT22;3309;48.708;9.290;2022-10-31T01:41:51;8.30;99.90
6552;DHT22;3309;48.708;9.290;2022-10-31T01:46:49;8.20;99.90
6552;DHT22;3309;48.708;9.290;2022-10-31T01:49:24;8.20;99.90
6552;DHT22;3309;48.708;9.290;2022-10-31T01:51:58;8.10;99.90
6552;DHT22;3309;48.708;9.290;2022-10-31T01:54:27;8.10;99.90
6552;DHT22;3309;48.708;9.290;2022-10-31T01:56:55;8.20;99.90
6552;DHT22;3309;48.708;9.290;2022-10-31T01:59:22;8.20;99.90
6552;DHT22;3309;48.708;9.290;2022-10-31T02:01:50;8.10;99.90
6552;DHT22;3309;48.708;9.290;2022-10-31T02:04:18;8.10;99.90
6552;DHT22;3309;48.708;9.290;2022-10-31T02:09:22;8.10;99.90
6552;DHT22;3309;48.708;9.290;2022-10-31T02:11:51;8.10;99.90
6552;DHT22;3309;48.708;9.290;2022-10-31T02:14:17;8.10;99.90
6552;DHT22;3309;48.708;9.290;2022-10-31T02:16:43;8.10;99.90
6552;DHT22;3309;48.708;9.290;2022-10-31T02:19:13;8.10;99.90
6552;DHT22;3309;48.708;9.290;2022-10-31T02:21:50;8.00;99.90
6552;DHT22;3309;48.708;9.290;2022-10-31T02:24:39;8.00;99.90
6552;DHT22;3309;48.708;9.290;2022-10-31T02:30:14;8.10;99.90
6552;DHT22;3309;48.708;9.290;2022-10-31T02:33:06;8.00;99.90
6552;DHT22;3309;48.708;9.290;2022-10-31T02:38:37;7.90;99.90
6552;DHT22;3309;48.708;9.290;2022-10-31T02:42:12;7.90;99.90
6552;DHT22;3309;48.708;9.290;2022-10-31T02:44:30;8.00;99.90
6552;DHT22;3309;48.708;9.290;2022-10-31T02:47:07;7.90;99.90
6552;DHT22;3309;48.708;9.290;2022-10-31T02:49:53;8.00;99.90
6552;DHT22;3309;48.708;9.290;2022-10-31T02:52:21;8.00;99.90
6552;DHT22;3309;48.708;9.290;2022-10-31T02:54:50;8.00;99.90
6552;DHT22;3309;48.708;9.290;2022-10-31T02:57:19;8.00;99.90
6552;DHT22;3309;48.708;9.290;2022-10-31T02:59:50;8.00;99.90
6552;DHT22;3309;48.708;9.290;2022-10-31T03:02:41;8.10;99.90
6552;DHT22;3309;48.708;9.290;2022-10-31T03:05:41;8.00;99.90
6552;DHT22;3309;48.708;9.290;2022-10-31T03:08:24;7.80;99.90
6552;DHT22;3309;48.708;9.290;2022-10-31T03:10:59;7.80;99.90
6552;DHT22;3309;48.708;9.290;2022-10-31T03:16:16;7.70;99.90
6552;DHT22;3309;48.708;9.290;2022-10-31T03:18:58;7.70;99.90
6552;DHT22;3309;48.708;9.290;2022-10-31T03:24:10;7.60;99.90
6552;DHT22;3309;48.708;9.290;2022-10-31T03:26:41;7.60;99.90
6552;DHT22;3309;48.708;9.290;2022-10-31T03:29:11;7.50;99.90
6552;DHT22;3309;48.708;9.290;2022-10-31T03:31:47;7.40;99.90
6552;DHT22;3309;48.708;9.290;2022-10-31T03:34:15;7.50;99.90
6552;DHT22;3309;48.708;9.290;2022-10-31T03:36:43;7.40;99.90
6552;DHT22;3309;48.708;9.290;2022-10-31T03:39:12;7.40;99.90
6552;DHT22;3309;48.708;9.290;2022-10-31T03:41:43;7.50;99.90
6552;DHT22;3309;48.708;9.290;2022-10-31T03:44:15;7.50;99.90
6552;DHT22;3309;48.708;9.290;2022-10-31T03:46:42;7.40;99.90
6552;DHT22;3309;48.708;9.290;2022-10-31T03:49:08;7.40;99.90
6552;DHT22;3309;48.708;9.290;2022-10-31T03:54:24;7.30;99.90
6552;DHT22;3309;48.708;9.290;2022-10-31T03:56:57;7.30;99.90
6552;DHT22;3309;48.708;9.290;2022-10-31T03:59:32;7.30;99.90
6552;DHT22;3309;48.708;9.290;2022-10-31T04:02:02;7.30;99.90
6552;DHT22;3309;48.708;9.290;2022-10-31T04:04:29;7.30;99.90
6552;DHT22;3309;48.708;9.290;2022-10-31T04:06:56;7.30;99.90
6552;DHT22;3309;48.708;9.290;2022-10-31T04:09:25;7.30;99.90
6552;DHT22;3309;48.708;9.290;2022-10-31T04:11:53;7.20;99.90
6552;DHT22;3309;48.708;9.290;2022-10-31T04:14:21;7.00;99.90
6552;DHT22;3309;48.708;9.290;2022-10-31T04:16:47;7.10;99.90
6552;DHT22;3309;48.708;9.290;2022-10-31T04:19:13;7.10;99.90
6552;DHT22;3309;48.708;9.290;2022-10-31T04:21:39;7.10;99.90
6552;DHT22;3309;48.708;9.290;2022-10-31T04:24:05;7.10;99.90
6552;DHT22;3309;48.708;9.290;2022-10-31T04:26:31;7.00;99.90
6552;DHT22;3309;48.708;9.290;2022-10-31T04:28:56;7.00;99.90
6552;DHT22;3309;48.708;9.290;2022-10-31T04:31:22;7.00;99.90
6552;DHT22;3309;48.708;9.290;2022-10-31T04:33:47;7.00;99.90
6552;DHT22;3309;48.708;9.290;2022-10-31T04:36:13;7.00;99.90
6552;DHT22;3309;48.708;9.290;2022-10-31T04:38:38;7.10;99.90
6552;DHT22;3309;48.708;9.290;2022-10-31T04:41:04;7.10;99.90
6552;DHT22;3309;48.708;9.290;2022-10-31T04:43:29;7.00;99.90
6552;DHT22;3309;48.708;9.290;2022-10-31T04:45:55;7.00;99.90
6552;DHT22;3309;48.708;9.290;2022-10-31T04:48:20;7.00;99.90
6552;DHT22;3309;48.708;9.290;2022-10-31T04:50:46;7.00;99.90
6552;DHT22;3309;48.708;9.290;2022-10-31T04:53:11;7.00;99.90
6552;DHT22;3309;48.708;9.290;2022-10-31T04:55:37;7.00;99.90
6552;DHT22;3309;48.708;9.290;2022-10-31T04:58:02;7.00;99.90
6552;DHT22;3309;48.708;9.290;2022-10-31T05:00:28;6.90;99.90
6552;DHT22;3309;48.708;9.290;2022-10-31T05:02:56;6.90;99.90
6552;DHT22;3309;48.708;9.290;2022-10-31T05:05:27;6.90;99.90
6552;DHT22;3309;48.708;9.290;2022-10-31T05:07:53;6.90;99.90
6552;DHT22;3309;48.708;9.290;2022-10-31T05:10:22;7.00;99.90
6552;DHT22;3309;48.708;9.290;2022-10-31T05:12:49;7.00;99.90
6552;DHT22;3309;48.708;9.290;2022-10-31T05:15:16;7.00;99.90
6552;DHT22;3309;48.708;9.290;2022-10-31T05:17:42;6.90;99.90
6552;DHT22;3309;48.708;9.290;2022-10-31T05:20:09;6.90;99.90
6552;DHT22;3309;48.708;9.290;2022-10-31T05:22:34;6.70;99.90
6552;DHT22;3309;48.708;9.290;2022-10-31T05:25:00;6.70;99.90
6552;DHT22;3309;48.708;9.290;2022-10-31T05:27:26;6.70;99.90
6552;DHT22;3309;48.708;9.290;2022-10-31T05:29:51;6.80;99.90
6552;DHT22;3309;48.708;9.290;2022-10-31T05:32:17;6.70;99.90
6552;DHT22;3309;48.708;9.290;2022-10-31T05:34:42;6.70;99.90
6552;DHT22;3309;48.708;9.290;2022-10-31T05:37:08;6.60;99.90
6552;DHT22;3309;48.708;9.290;2022-10-31T05:39:34;6.60;99.90
6552;DHT22;3309;48.708;9.290;2022-10-31T05:42:00;6.60;99.90
6552;DHT22;3309;48.708;9.290;2022-10-31T05:44:26;6.50;99.90
6552;DHT22;3309;48.708;9.290;2022-10-31T05:46:51;6.50;99.90
6552;DHT22;3309;48.708;9.290;2022-10-31T05:49:17;6.50;99.90
6552;DHT22;3309;48.708;9.290;2022-10-31T05:51:43;6.50;99.90
6552;DHT22;3309;48.708;9.290;2022-10-31T05:54:08;6.50;99.90
6552;DHT22;3309;48.708;9.290;2022-10-31T05:56:34;6.40;99.90
6552;DHT22;3309;48.708;9.290;2022-10-31T05:58:59;6.40;99.90
6552;DHT22;3309;48.708;9.290;2022-10-31T06:01:25;6.40;99.90
6552;DHT22;3309;48.708;9.290;2022-10-31T06:03:51;6.40;99.90
6552;DHT22;3309;48.708;9.290;2022-10-31T06:06:16;6.40;99.90
6552;DHT22;3309;48.708;9.290;2022-10-31T06:08:42;6.40;99.90
6552;DHT22;3309;48.708;9.290;2022-10-31T06:11:07;6.40;99.90
6552;DHT22;3309;48.708;9.290;2022-10-31T06:13:33;6.40;99.90
6552;DHT22;3309;48.708;9.290;2022-10-31T06:15:58;6.50;99.90
6552;DHT22;3309;48.708;9.290;2022-10-31T06:18:24;6.60;99.90
6552;DHT22;3309;48.708;9.290;2022-10-31T06:20:50;6.60;99.90
6552;DHT22;3309;48.708;9.290;2022-10-31T06:23:15;6.60;99.90
6552;DHT22;3309;48.708;9.290;2022-10-31T06:25:41;6.70;99.90
6552;DHT22;3309;48.708;9.290;2022-10-31T06:28:06;6.80;99.90
6552;DHT22;3309;48.708;9.290;2022-10-31T06:30:32;6.90;99.90
6552;DHT22;3309;48.708;9.290;2022-10-31T06:33:02;7.00;99.90
6552;DHT22;3309;48.708;9.290;2022-10-31T06:35:29;7.10;99.90
6552;DHT22;3309;48.708;9.290;2022-10-31T06:37:55;7.30;99.90
6552;DHT22;3309;48.708;9.290;2022-10-31T06:40:21;7.30;99.90
6552;DHT22;3309;48.708;9.290;2022-10-31T06:42:46;7.40;99.90
6552;DHT22;3309;48.708;9.290;2022-10-31T06:45:12;7.30;99.90
6552;DHT22;3309;48.708;9.290;2022-10-31T06:47:37;7.50;99.90
6552;DHT22;3309;48.708;9.290;2022-10-31T06:50:03;7.90;99.90
6552;DHT22;3309;48.708;9.290;2022-10-31T06:52:29;8.40;99.90
6552;DHT22;3309;48.708;9.290;2022-10-31T06:54:54;9.20;99.90
6552;DHT22;3309;48.708;9.290;2022-10-31T06:57:20;9.50;80.60
6552;DHT22;3309;48.708;9.290;2022-10-31T06:59:45;9.60;35.10
6552;DHT22;3309;48.708;9.290;2022-10-31T07:02:11;10.30;1.00
6552;DHT22;3309;48.708;9.290;2022-10-31T07:04:37;9.80;1.00
6552;DHT22;3309;48.708;9.290;2022-10-31T07:07:02;9.60;14.90
6552;DHT22;3309;48.708;9.290;2022-10-31T07:09:28;9.70;48.60
6552;DHT22;3309;48.708;9.290;2022-10-31T07:11:54;10.20;1.00
6552;DHT22;3309;48.708;9.290;2022-10-31T07:14:19;9.70;1.00
6552;DHT22;3309;48.708;9.290;2022-10-31T07:16:49;9.50;46.20
6552;DHT22;3309;48.708;9.290;2022-10-31T07:19:15;9.80;10.80
6552;DHT22;3309;48.708;9.290;2022-10-31T07:21:41;9.60;10.50
6552;DHT22;3309;48.708;9.290;2022-10-31T07:24:06;9.60;55.30
6552;DHT22;3309;48.708;9.290;2022-10-31T07:26:32;9.90;22.80
6552;DHT22;3309;48.708;9.290;2022-10-31T07:28:57;10.20;1.00
6552;DHT22;3309;48.708;9.290;2022-10-31T07:31:24;10.50;1.00
6552;DHT22;3309;48.708;9.290;2022-10-31T07:33:50;10.60;1.00
6552;DHT22;3309;48.708;9.290;2022-10-31T07:36:16;10.60;36.40
6552;DHT22;3309;48.708;9.290;2022-10-31T07:38:41;10.20;63.10
6552;DHT22;3309;48.708;9.290;2022-10-31T07:41:07;10.00;92.30
6552;DHT22;3309;48.708;9.290;2022-10-31T07:43:32;10.00;73.20
6552;DHT22;3309;48.708;9.290;2022-10-31T07:45:58;9.80;99.90
6552;DHT22;3309;48.708;9.290;2022-10-31T07:48:23;9.70;99.90
6552;DHT22;3309;48.708;9.290;2022-10-31T07:50:49;9.80;99.90
6552;DHT22;3309;48.708;9.290;2022-10-31T07:53:15;9.70;99.90
6552;DHT22;3309;48.708;9.290;2022-10-31T07:55:41;9.70;99.90
6552;DHT22;3309;48.708;9.290;2022-10-31T07:58:12;9.90;99.90
6552;DHT22;3309;48.708;9.290;2022-10-31T08:00:39;10.00;99.90
6552;DHT22;3309;48.708;9.290;2022-10-31T08:03:07;10.00;99.90
6552;DHT22;3309;48.708;9.290;2022-10-31T08:05:34;10.00;99.90
6552;DHT22;3309;48.708;9.290;2022-10-31T08:08:00;10.30;98.20
6552;DHT22;3309;48.708;9.290;2022-10-31T08:10:26;10.60;91.60
6552;DHT22;3309;48.708;9.290;2022-10-31T08:13:07;10.80;56.80
6552;DHT22;3309;48.708;9.290;2022-10-31T08:15:33;11.00;44.40
6552;DHT22;3309;48.708;9.290;2022-10-31T08:18:02;11.20;25.40
6552;DHT22;3309;48.708;9.290;2022-10-31T08:20:28;11.40;1.00
6552;DHT22;3309;48.708;9.290;2022-10-31T08:23:01;11.50;1.00
6552;DHT22;3309;48.708;9.290;2022-10-31T08:25:28;11.40;22.00
6552;DHT22;3309;48.708;9.290;2022-10-31T08:27:55;11.50;1.00
6552;DHT22;3309;48.708;9.290;2022-10-31T08:30:23;11.60;8.30
6552;DHT22;3309;48.708;9.290;2022-10-31T08:32:58;11.80;1.00
6552;DHT22;3309;48.708;9.290;2022-10-31T08:35:24;11.80;1.00
6552;DHT22;3309;48.708;9.290;2022-10-31T08:37:53;12.10;1.00
6552;DHT22;3309;48.708;9.290;2022-10-31T08:40:19;12.40;1.00
6552;DHT22;3309;48.708;9.290;2022-10-31T08:42:45;12.40;1.00
6552;DHT22;3309;48.708;9.290;2022-10-31T08:45:10;12.50;1.00
6552;DHT22;3309;48.708;9.290;2022-10-31T08:47:36;12.80;1.00
6552;DHT22;3309;48.708;9.290;2022-10-31T08:50:02;12.90;1.00
6552;DHT22;3309;48.708;9.290;2022-10-31T08:52:27;12.90;1.00
6552;DHT22;3309;48.708;9.290;2022-10-31T08:54:53;13.00;1.00
6552;DHT22;3309;48.708;9.290;2022-10-31T08:57:18;13.10;1.00
6552;DHT22;3309;48.708;9.290;2022-10-31T08:59:44;13.00;1.00
6552;DHT22;3309;48.708;9.290;2022-10-31T09:02:09;13.10;1.00
6552;DHT22;3309;48.708;9.290;2022-10-31T09:04:35;13.00;1.00
6552;DHT22;3309;48.708;9.290;2022-10-31T09:07:00;12.90;1.00
6552;DHT22;3309;48.708;9.290;2022-10-31T09:09:26;12.90;1.00
6552;DHT22;3309;48.708;9.290;2022-10-31T09:11:51;12.90;1.00
6552;DHT22;3309;48.708;9.290;2022-10-31T09:14:17;13.20;1.00
6552;DHT22;3309;48.708;9.290;2022-10-31T09:16:42;13.20;1.00
6552;DHT22;3309;48.708;9.290;2022-10-31T09:19:08;13.10;1.00
6552;DHT22;3309;48.708;9.290;2022-10-31T09:21:33;13.10;1.00
6552;DHT22;3309;48.708;9.290;2022-10-31T09:23:59;13.20;1.00
6552;DHT22;3309;48.708;9.290;2022-10-31T09:26:24;13.30;1.00
6552;DHT22;3309;48.708;9.290;2022-10-31T09:28:50;13.70;1.00
6552;DHT22;3309;48.708;9.290;2022-10-31T09:31:15;13.80;1.00
6552;DHT22;3309;48.708;9.290;2022-10-31T09:33:41;13.90;1.00
6552;DHT22;3309;48.708;9.290;2022-10-31T09:36:07;14.10;1.00
6552;DHT22;3309;48.708;9.290;2022-10-31T09:38:33;14.40;1.00
6552;DHT22;3309;48.708;9.290;2022-10-31T09:41:23;14.70;1.00
6552;DHT22;3309;48.708;9.290;2022-10-31T09:46:54;14.90;99.90
6552;DHT22;3309;48.708;9.290;2022-10-31T09:49:37;15.20;1.00
6552;DHT22;3309;48.708;9.290;2022-10-31T09:52:23;15.50;1.00
6552;DHT22;3309;48.708;9.290;2022-10-31T09:55:12;15.60;1.00
6552;DHT22;3309;48.708;9.290;2022-10-31T09:57:40;15.70;1.00
6552;DHT22;3309;48.708;9.290;2022-10-31T10:00:10;15.50;99.90
6552;DHT22;3309;48.708;9.290;2022-10-31T10:03:01;15.80;99.90
6552;DHT22;3309;48.708;9.290;2022-10-31T10:05:37;16.00;1.00
6552;DHT22;3309;48.708;9.290;2022-10-31T10:08:11;16.10;1.00
6552;DHT22;3309;48.708;9.290;2022-10-31T10:10:53;16.40;99.90
6552;DHT22;3309;48.708;9.290;2022-10-31T10:13:36;16.30;99.90
6552;DHT22;3309;48.708;9.290;2022-10-31T10:16:51;16.10;99.90
6552;DHT22;3309;48.708;9.290;2022-10-31T10:19:45;16.50;80.10
6552;DHT22;3309;48.708;9.290;2022-10-31T10:30:39;16.40;1.00
6552;DHT22;3309;48.708;9.290;2022-10-31T10:33:12;16.70;1.00
6552;DHT22;3309;48.708;9.290;2022-10-31T10:40:53;16.90;1.00
6552;DHT22;3309;48.708;9.290;2022-10-31T10:43:34;16.60;1.00
6552;DHT22;3309;48.708;9.290;2022-10-31T10:49:36;15.80;1.00
6552;DHT22;3309;48.708;9.290;2022-10-31T10:57:49;15.50;1.00
6552;DHT22;3309;48.708;9.290;2022-10-31T11:00:24;15.40;1.00
6552;DHT22;3309;48.708;9.290;2022-10-31T11:02:51;15.50;1.00
6552;DHT22;3309;48.708;9.290;2022-10-31T11:07:50;15.70;99.90
6552;DHT22;3309;48.708;9.290;2022-10-31T11:10:16;15.80;1.00
6552;DHT22;3309;48.708;9.290;2022-10-31T11:12:45;16.00;99.90
6552;DHT22;3309;48.708;9.290;2022-10-31T11:15:31;16.20;99.90
6552;DHT22;3309;48.708;9.290;2022-10-31T11:17:57;16.80;1.00
6552;DHT22;3309;48.708;9.290;2022-10-31T11:20:30;17.20;1.00
6552;DHT22;3309;48.708;9.290;2022-10-31T11:23:18;17.70;1.00
6552;DHT22;3309;48.708;9.290;2022-10-31T11:25:55;17.30;99.90
6552;DHT22;3309;48.708;9.290;2022-10-31T11:28:21;17.70;1.00
6552;DHT22;3309;48.708;9.290;2022-10-31T11:30:59;17.40;81.60
6552;DHT22;3309;48.708;9.290;2022-10-31T11:33:32;17.60;99.90
6552;DHT22;3309;48.708;9.290;2022-10-31T11:35:58;17.50;1.00
6552;DHT22;3309;48.708;9.290;2022-10-31T11:38:40;17.80;1.00
6552;DHT22;3309;48.708;9.290;2022-10-31T11:43:38;18.40;1.00
6552;DHT22;3309;48.708;9.290;2022-10-31T11:46:20;18.70;1.00
6552;DHT22;3309;48.708;9.290;2022-10-31T11:48:52;18.60;1.00
6552;DHT22;3309;48.708;9.290;2022-10-31T11:51:25;19.20;1.00
6552;DHT22;3309;48.708;9.290;2022-10-31T11:53:53;19.50;1.00
6552;DHT22;3309;48.708;9.290;2022-10-31T11:56:20;19.20;1.00
6552;DHT22;3309;48.708;9.290;2022-10-31T11:59:04;18.50;99.90
6552;DHT22;3309;48.708;9.290;2022-10-31T12:01:31;18.40;1.00
6552;DHT22;3309;48.708;9.290;2022-10-31T12:06:35;18.40;1.00
6552;DHT22;3309;48.708;9.290;2022-10-31T12:09:02;18.20;1.00
6552;DHT22;3309;48.708;9.290;2022-10-31T12:17:15;18.30;1.00
6552;DHT22;3309;48.708;9.290;2022-10-31T12:22:48;18.60;1.00
6552;DHT22;3309;48.708;9.290;2022-10-31T12:44:22;17.10;1.00
6552;DHT22;3309;48.708;9.290;2022-10-31T12:57:25;16.80;99.90
6552;DHT22;3309;48.708;9.290;2022-10-31T13:02:39;16.70;99.90
6552;DHT22;3309;48.708;9.290;2022-10-31T13:05:22;16.70;1.00
6552;DHT22;3309;48.708;9.290;2022-10-31T13:08:11;16.70;1.00
6552;DHT22;3309;48.708;9.290;2022-10-31T13:16:21;16.60;1.00
6552;DHT22;3309;48.708;9.290;2022-10-31T13:18:51;16.60;20.80
6552;DHT22;3309;48.708;9.290;2022-10-31T13:24:16;16.70;99.90
6552;DHT22;3309;48.708;9.290;2022-10-31T13:26:50;16.70;1.00
6552;DHT22;3309;48.708;9.290;2022-10-31T13:29:23;16.60;1.00
6552;DHT22;3309;48.708;9.290;2022-10-31T13:31:50;16.70;99.90
6552;DHT22;3309;48.708;9.290;2022-10-31T13:37:03;16.90;99.90
6552;DHT22;3309;48.708;9.290;2022-10-31T13:39:45;16.90;1.00
6552;DHT22;3309;48.708;9.290;2022-10-31T13:42:29;17.20;99.90
6552;DHT22;3309;48.708;9.290;2022-10-31T13:45:17;17.80;99.90
6552;DHT22;3309;48.708;9.290;2022-10-31T13:47:58;18.80;99.90
6552;DHT22;3309;48.708;9.290;2022-10-31T13:50:27;19.90;99.90
6552;DHT22;3309;48.708;9.290;2022-10-31T13:53:14;19.10;99.90
6552;DHT22;3309;48.708;9.290;2022-10-31T13:55:45;18.50;38.40
6552;DHT22;3309;48.708;9.290;2022-10-31T13:58:38;18.30;1.00
6552;DHT22;3309;48.708;9.290;2022-10-31T14:03:36;18.20;1.00
6552;DHT22;3309;48.708;9.290;2022-10-31T14:06:02;18.20;1.00
6552;DHT22;3309;48.708;9.290;2022-10-31T14:08:33;18.50;99.90
6552;DHT22;3309;48.708;9.290;2022-10-31T14:10:59;18.70;99.90
6552;DHT22;3309;48.708;9.290;2022-10-31T14:13:44;18.30;1.00
6552;DHT22;3309;48.708;9.290;2022-10-31T14:16:30;18.90;1.00
6552;DHT22;3309;48.708;9.290;2022-10-31T14:19:12;20.60;99.90
6552;DHT22;3309;48.708;9.290;2022-10-31T14:21:41;20.80;41.30
6552;DHT22;3309;48.708;9.290;2022-10-31T14:26:55;20.90;1.00
6552;DHT22;3309;48.708;9.290;2022-10-31T14:37:32;19.30;99.90
6552;DHT22;3309;48.708;9.290;2022-10-31T14:45:51;18.10;99.90
6552;DHT22;3309;48.708;9.290;2022-10-31T14:51:16;17.40;1.00
6552;DHT22;3309;48.708;9.290;2022-10-31T14:53:55;17.20;99.90
6552;DHT22;3309;48.708;9.290;2022-10-31T14:56:33;17.10;99.90
6552;DHT22;3309;48.708;9.290;2022-10-31T14:59:07;16.90;99.90
6552;DHT22;3309;48.708;9.290;2022-10-31T15:01:36;16.90;1.00
6552;DHT22;3309;48.708;9.290;2022-10-31T15:04:22;16.90;1.00
6552;DHT22;3309;48.708;9.290;2022-10-31T15:06:59;16.90;1.00
6552;DHT22;3309;48.708;9.290;2022-10-31T15:09:34;16.90;1.00
6552;DHT22;3309;48.708;9.290;2022-10-31T15:12:01;16.80;1.00
6552;DHT22;3309;48.708;9.290;2022-10-31T15:14:40;16.60;1.00
6552;DHT22;3309;48.708;9.290;2022-10-31T15:17:05;16.50;1.00
6552;DHT22;3309;48.708;9.290;2022-10-31T15:19:32;16.30;1.00
6552;DHT22;3309;48.708;9.290;2022-10-31T15:22:00;16.20;1.00
6552;DHT22;3309;48.708;9.290;2022-10-31T15:24:35;16.10;1.00
6552;DHT22;3309;48.708;9.290;2022-10-31T15:27:02;16.10;1.00
6552;DHT22;3309;48.708;9.290;2022-10-31T15:29:28;16.00;1.00
6552;DHT22;3309;48.708;9.290;2022-10-31T15:31:59;15.80;1.00
6552;DHT22;3309;48.708;9.290;2022-10-31T15:34:40;15.70;1.00
6552;DHT22;3309;48.708;9.290;2022-10-31T15:37:12;15.60;1.00
6552;DHT22;3309;48.708;9.290;2022-10-31T15:39:39;15.50;1.00
6552;DHT22;3309;48.708;9.290;2022-10-31T15:42:13;15.30;1.00
6552;DHT22;3309;48.708;9.290;2022-10-31T15:44:41;15.10;27.70
6552;DHT22;3309;48.708;9.290;2022-10-31T15:47:15;14.80;99.90
6552;DHT22;3309;48.708;9.290;2022-10-31T15:49:54;14.50;99.90
6552;DHT22;3309;48.708;9.290;2022-10-31T15:52:31;14.40;99.90
6552;DHT22;3309;48.708;9.290;2022-10-31T15:55:03;14.20;99.90
6552;DHT22;3309;48.708;9.290;2022-10-31T15:57:30;14.20;99.90
6552;DHT22;3309;48.708;9.290;2022-10-31T15:59:55;14.10;99.90
6552;DHT22;3309;48.708;9.290;2022-10-31T16:02:23;14.00;99.90
6552;DHT22;3309;48.708;9.290;2022-10-31T16:05:00;13.60;99.90
6552;DHT22;3309;48.708;9.290;2022-10-31T16:07:27;13.40;99.90
6552;DHT22;3309;48.708;9.290;2022-10-31T16:09:56;13.20;99.90
6552;DHT22;3309;48.708;9.290;2022-10-31T16:12:23;13.10;99.90
6552;DHT22;3309;48.708;9.290;2022-10-31T16:14:51;13.00;99.90
6552;DHT22;3309;48.708;9.290;2022-10-31T16:17:21;13.00;99.90
6552;DHT22;3309;48.708;9.290;2022-10-31T16:22:25;13.00;99.90
6552;DHT22;3309;48.708;9.290;2022-10-31T16:27:34;13.10;99.90
6552;DHT22;3309;48.708;9.290;2022-10-31T16:30:02;12.90;99.90
6552;DHT22;3309;48.708;9.290;2022-10-31T16:32:31;12.80;99.90
6552;DHT22;3309;48.708;9.290;2022-10-31T16:37:39;12.90;99.90
6552;DHT22;3309;48.708;9.290;2022-10-31T16:40:05;12.90;99.90
6552;DHT22;3309;48.708;9.290;2022-10-31T16:42:32;12.80;99.90
6552;DHT22;3309;48.708;9.290;2022-10-31T16:44:58;12.80;99.90
6552;DHT22;3309;48.708;9.290;2022-10-31T16:47:24;12.70;99.90
6552;DHT22;3309;48.708;9.290;2022-10-31T16:49:49;12.60;99.90
6552;DHT22;3309;48.708;9.290;2022-10-31T16:52:16;12.40;99.90
6552;DHT22;3309;48.708;9.290;2022-10-31T16:54:42;12.40;99.90
6552;DHT22;3309;48.708;9.290;2022-10-31T16:57:14;12.20;99.90
6552;DHT22;3309;48.708;9.290;2022-10-31T16:59:40;12.10;99.90
6552;DHT22;3309;48.708;9.290;2022-10-31T17:02:14;11.80;99.90
6552;DHT22;3309;48.708;9.290;2022-10-31T17:04:40;11.70;99.90
6552;DHT22;3309;48.708;9.290;2022-10-31T17:07:05;11.50;99.90
6552;DHT22;3309;48.708;9.290;2022-10-31T17:09:31;11.40;99.90
6552;DHT22;3309;48.708;9.290;2022-10-31T17:11:56;11.50;99.90
6552;DHT22;3309;48.708;9.290;2022-10-31T17:14:22;11.40;99.90
6552;DHT22;3309;48.708;9.290;2022-10-31T17:16:48;11.50;99.90
6552;DHT22;3309;48.708;9.290;2022-10-31T17:19:14;11.40;99.90
6552;DHT22;3309;48.708;9.290;2022-10-31T17:21:39;11.60;99.90
6552;DHT22;3309;48.708;9.290;2022-10-31T17:24:06;11.60;99.90
6552;DHT22;3309;48.708;9.290;2022-10-31T17:26:31;11.70;99.90
6552;DHT22;3309;48.708;9.290;2022-10-31T17:28:57;11.60;99.90
6552;DHT22;3309;48.708;9.290;2022-10-31T17:31:32;11.60;99.90
6552;DHT22;3309;48.708;9.290;2022-10-31T17:33:59;11.60;99.90
6552;DHT22;3309;48.708;9.290;2022-10-31T17:36:25;11.70;99.90
6552;DHT22;3309;48.708;9.290;2022-10-31T17:38:51;11.90;99.90
6552;DHT22;3309;48.708;9.290;2022-10-31T17:41:16;11.60;99.90
6552;DHT22;3309;48.708;9.290;2022-10-31T17:43:42;11.40;99.90
6552;DHT22;3309;48.708;9.290;2022-10-31T17:46:07;11.30;99.90
6552;DHT22;3309;48.708;9.290;2022-10-31T17:48:34;11.20;99.90
6552;DHT22;3309;48.708;9.290;2022-10-31T17:51:04;11.20;99.90
6552;DHT22;3309;48.708;9.290;2022-10-31T17:53:31;11.20;99.90
6552;DHT22;3309;48.708;9.290;2022-10-31T17:56:05;11.10;99.90
6552;DHT22;3309;48.708;9.290;2022-10-31T17:58:31;11.00;99.90
6552;DHT22;3309;48.708;9.290;2022-10-31T18:00:57;10.90;99.90
6552;DHT22;3309;48.708;9.290;2022-10-31T18:03:23;10.90;99.90
6552;DHT22;3309;48.708;9.290;2022-10-31T18:05:57;10.80;99.90
6552;DHT22;3309;48.708;9.290;2022-10-31T18:08:31;10.70;99.90
6552;DHT22;3309;48.708;9.290;2022-10-31T18:10:57;11.00;99.90
6552;DHT22;3309;48.708;9.290;2022-10-31T18:13:25;10.50;99.90
6552;DHT22;3309;48.708;9.290;2022-10-31T18:15:51;10.50;99.90
6552;DHT22;3309;48.708;9.290;2022-10-31T18:18:16;10.50;99.90
6552;DHT22;3309;48.708;9.290;2022-10-31T18:20:42;10.50;99.90
6552;DHT22;3309;48.708;9.290;2022-10-31T18:23:08;10.60;99.90
6552;DHT22;3309;48.708;9.290;2022-10-31T18:25:34;10.60;99.90
6552;DHT22;3309;48.708;9.290;2022-10-31T18:27:59;10.50;99.90
6552;DHT22;3309;48.708;9.290;2022-10-31T18:30:26;10.30;99.90
6552;DHT22;3309;48.708;9.290;2022-10-31T18:32:52;10.40;99.90
6552;DHT22;3309;48.708;9.290;2022-10-31T18:35:17;10.30;99.90
6552;DHT22;3309;48.708;9.290;2022-10-31T18:37:43;10.30;99.90
6552;DHT22;3309;48.708;9.290;2022-10-31T18:40:09;10.20;99.90
6552;DHT22;3309;48.708;9.290;2022-10-31T18:42:34;10.20;99.90